sensor_id;sensor_type;location;lat;lon;timestamp;temperature;humidity
2995;DHT22;35277;49.890;8.222;2023-04-25T00:00:21;22.40;69.50
2995;DHT22;35277;49.890;8.222;2023-04-25T00:02:49;22.40;69.50
2995;DHT22;35277;49.890;8.222;2023-04-25T00:05:17;22.40;69.50
2995;DHT22;35277;49.890;8.222;2023-04-25T00:07:47;22.40;69.50
2995;DHT22;35277;49.890;8.222;2023-04-25T00:10:15;22.40;69.50
2995;DHT22;35277;49.890;8.222;2023-04-25T00:12:43;22.40;70.30
2995;DHT22;35277;49.890;8.222;2023-04-25T00:15:11;22.40;69.50
2995;DHT22;35277;49.890;8.222;2023-04-25T00:17:39;22.40;69.50
2995;DHT22;35277;49.890;8.222;2023-04-25T00:20:07;22.40;70.30
2995;DHT22;35277;49.890;8.222;2023-04-25T00:22:36;22.40;69.50
2995;DHT22;35277;49.890;8.222;2023-04-25T00:25:07;22.40;69.50
2995;DHT22;35277;49.890;8.222;2023-04-25T00:27:34;22.40;69.50
2995;DHT22;35277;49.890;8.222;2023-04-25T00:30:04;22.40;69.50
2995;DHT22;35277;49.890;8.222;2023-04-25T00:32:32;22.40;69.50
2995;DHT22;35277;49.890;8.222;2023-04-25T00:35:00;22.40;69.50
2995;DHT22;35277;49.890;8.222;2023-04-25T00:37:28;22.40;69.60
2995;DHT22;35277;49.890;8.222;2023-04-25T00:39:57;22.40;69.50
2995;DHT22;35277;49.890;8.222;2023-04-25T00:42:27;22.40;69.50
2995;DHT22;35277;49.890;8.222;2023-04-25T00:44:56;22.40;69.50
2995;DHT22;35277;49.890;8.222;2023-04-25T00:47:25;22.40;69.50
2995;DHT22;35277;49.890;8.222;2023-04-25T00:49:53;22.40;69.50
2995;DHT22;35277;49.890;8.222;2023-04-25T00:52:20;22.40;70.30
2995;DHT22;35277;49.890;8.222;2023-04-25T00:54:48;22.40;69.50
2995;DHT22;35277;49.890;8.222;2023-04-25T00:57:16;22.40;69.50
2995;DHT22;35277;49.890;8.222;2023-04-25T00:59:45;22.40;69.50
2995;DHT22;35277;49.890;8.222;2023-04-25T01:02:13;22.40;69.50
2995;DHT22;35277;49.890;8.222;2023-04-25T01:04:41;22.40;69.50
2995;DHT22;35277;49.890;8.222;2023-04-25T01:07:09;22.40;69.50
2995;DHT22;35277;49.890;8.222;2023-04-25T01:09:37;22.40;69.50
2995;DHT22;35277;49.890;8.222;2023-04-25T01:12:05;22.40;69.60
2995;DHT22;35277;49.890;8.222;2023-04-25T01:14:34;22.40;69.50
2995;DHT22;35277;49.890;8.222;2023-04-25T01:17:03;22.40;69.60
2995;DHT22;35277;49.890;8.222;2023-04-25T01:19:31;22.40;69.60
2995;DHT22;35277;49.890;8.222;2023-04-25T01:22:01;22.40;69.60
2995;DHT22;35277;49.890;8.222;2023-04-25T01:24:29;22.40;69.60
2995;DHT22;35277;49.890;8.222;2023-04-25T01:26:58;22.30;69.40
2995;DHT22;35277;49.890;8.222;2023-04-25T01:29:28;22.40;69.60
2995;DHT22;35277;49.890;8.222;2023-04-25T01:31:56;22.30;69.40
2995;DHT22;35277;49.890;8.222;2023-04-25T01:34:25;22.40;69.60
2995;DHT22;35277;49.890;8.222;2023-04-25T01:36:53;22.30;69.50
2995;DHT22;35277;49.890;8.222;2023-04-25T01:39:23;22.30;69.50
2995;DHT22;35277;49.890;8.222;2023-04-25T01:41:51;22.40;69.60
2995;DHT22;35277;49.890;8.222;2023-04-25T01:44:20;22.30;69.50
2995;DHT22;35277;49.890;8.222;2023-04-25T01:46:48;22.30;69.50
2995;DHT22;35277;49.890;8.222;2023-04-25T01:49:15;22.30;69.50
2995;DHT22;35277;49.890;8.222;2023-04-25T01:51:44;22.30;69.50
2995;DHT22;35277;49.890;8.222;2023-04-25T01:54:12;22.30;69.50
2995;DHT22;35277;49.890;8.222;2023-04-25T01:56:42;22.30;70.30
2995;DHT22;35277;49.890;8.222;2023-04-25T01:59:11;22.30;69.50
2995;DHT22;35277;49.890;8.222;2023-04-25T02:01:54;22.30;69.50
2995;DHT22;35277;49.890;8.222;2023-04-25T02:04:28;22.30;69.50
2995;DHT22;35277;49.890;8.222;2023-04-25T02:06:56;22.30;69.50
2995;DHT22;35277;49.890;8.222;2023-04-25T02:09:31;22.30;69.50
2995;DHT22;35277;49.890;8.222;2023-04-25T02:12:04;22.30;69.60
2995;DHT22;35277;49.890;8.222;2023-04-25T02:14:40;22.30;69.60
2995;DHT22;35277;49.890;8.222;2023-04-25T02:17:18;22.30;69.50
2995;DHT22;35277;49.890;8.222;2023-04-25T02:19:47;22.30;69.60
2995;DHT22;35277;49.890;8.222;2023-04-25T02:22:15;22.30;69.60
2995;DHT22;35277;49.890;8.222;2023-04-25T02:24:43;22.30;69.60
2995;DHT22;35277;49.890;8.222;2023-04-25T02:27:12;22.30;69.60
2995;DHT22;35277;49.890;8.222;2023-04-25T02:29:40;22.30;69.60
2995;DHT22;35277;49.890;8.222;2023-04-25T02:32:10;22.30;69.70
2995;DHT22;35277;49.890;8.222;2023-04-25T02:34:38;22.30;69.60
2995;DHT22;35277;49.890;8.222;2023-04-25T02:37:06;22.30;69.60
2995;DHT22;35277;49.890;8.222;2023-04-25T02:39:33;22.30;69.60
2995;DHT22;35277;49.890;8.222;2023-04-25T02:42:02;22.30;69.70
2995;DHT22;35277;49.890;8.222;2023-04-25T02:44:31;22.30;69.70
2995;DHT22;35277;49.890;8.222;2023-04-25T02:46:59;22.30;69.70
2995;DHT22;35277;49.890;8.222;2023-04-25T02:49:26;22.30;69.70
2995;DHT22;35277;49.890;8.222;2023-04-25T02:51:54;22.30;69.70
2995;DHT22;35277;49.890;8.222;2023-04-25T02:54:22;22.30;69.70
2995;DHT22;35277;49.890;8.222;2023-04-25T02:56:50;22.30;69.70
2995;DHT22;35277;49.890;8.222;2023-04-25T02:59:23;22.30;69.70
2995;DHT22;35277;49.890;8.222;2023-04-25T03:01:52;22.30;69.70
2995;DHT22;35277;49.890;8.222;2023-04-25T03:04:21;22.30;70.50
2995;DHT22;35277;49.890;8.222;2023-04-25T03:06:50;22.30;69.70
2995;DHT22;35277;49.890;8.222;2023-04-25T03:09:20;22.30;69.70
2995;DHT22;35277;49.890;8.222;2023-04-25T03:11:48;22.30;69.70
2995;DHT22;35277;49.890;8.222;2023-04-25T03:14:17;22.30;69.70
2995;DHT22;35277;49.890;8.222;2023-04-25T03:16:45;22.30;69.80
2995;DHT22;35277;49.890;8.222;2023-04-25T03:19:14;22.30;69.70
2995;DHT22;35277;49.890;8.222;2023-04-25T03:21:43;22.30;69.80
2995;DHT22;35277;49.890;8.222;2023-04-25T03:24:12;22.30;69.80
2995;DHT22;35277;49.890;8.222;2023-04-25T03:26:39;22.30;69.70
2995;DHT22;35277;49.890;8.222;2023-04-25T03:29:08;22.30;69.80
2995;DHT22;35277;49.890;8.222;2023-04-25T03:31:37;22.30;69.80
2995;DHT22;35277;49.890;8.222;2023-04-25T03:34:05;22.30;69.80
2995;DHT22;35277;49.890;8.222;2023-04-25T03:36:34;22.30;69.80
2995;DHT22;35277;49.890;8.222;2023-04-25T03:39:02;22.30;69.80
2995;DHT22;35277;49.890;8.222;2023-04-25T03:41:31;22.30;69.80
2995;DHT22;35277;49.890;8.222;2023-04-25T03:44:07;22.30;69.80
2995;DHT22;35277;49.890;8.222;2023-04-25T03:46:35;22.30;69.90
2995;DHT22;35277;49.890;8.222;2023-04-25T03:49:03;22.30;70.00
2995;DHT22;35277;49.890;8.222;2023-04-25T03:51:52;22.30;70.00
2995;DHT22;35277;49.890;8.222;2023-04-25T03:54:19;22.30;70.00
2995;DHT22;35277;49.890;8.222;2023-04-25T03:56:55;22.30;70.00
2995;DHT22;35277;49.890;8.222;2023-04-25T03:59:26;22.30;70.00
2995;DHT22;35277;49.890;8.222;2023-04-25T04:01:55;22.30;70.00
2995;DHT22;35277;49.890;8.222;2023-04-25T04:04:23;22.30;70.00
2995;DHT22;35277;49.890;8.222;2023-04-25T04:06:52;22.30;70.00
2995;DHT22;35277;49.890;8.222;2023-04-25T04:09:24;22.30;70.00
2995;DHT22;35277;49.890;8.222;2023-04-25T04:11:55;22.30;70.00
2995;DHT22;35277;49.890;8.222;2023-04-25T04:14:23;22.30;70.00
2995;DHT22;35277;49.890;8.222;2023-04-25T04:16:51;22.30;70.00
2995;DHT22;35277;49.890;8.222;2023-04-25T04:19:19;22.30;70.00
2995;DHT22;35277;49.890;8.222;2023-04-25T04:21:55;22.30;70.00
2995;DHT22;35277;49.890;8.222;2023-04-25T04:24:23;22.30;69.90
2995;DHT22;35277;49.890;8.222;2023-04-25T04:26:59;22.30;69.90
2995;DHT22;35277;49.890;8.222;2023-04-25T04:29:35;22.30;69.90
2995;DHT22;35277;49.890;8.222;2023-04-25T04:32:23;22.30;69.90
2995;DHT22;35277;49.890;8.222;2023-04-25T04:34:53;22.30;69.80
2995;DHT22;35277;49.890;8.222;2023-04-25T04:37:25;22.30;69.80
2995;DHT22;35277;49.890;8.222;2023-04-25T04:39:53;22.20;69.70
2995;DHT22;35277;49.890;8.222;2023-04-25T04:42:25;22.20;69.70
2995;DHT22;35277;49.890;8.222;2023-04-25T04:45:11;22.20;69.70
2995;DHT22;35277;49.890;8.222;2023-04-25T04:47:57;22.20;69.60
2995;DHT22;35277;49.890;8.222;2023-04-25T04:50:44;22.20;69.60
2995;DHT22;35277;49.890;8.222;2023-04-25T04:53:32;22.20;69.50
2995;DHT22;35277;49.890;8.222;2023-04-25T04:56:18;22.20;69.50
2995;DHT22;35277;49.890;8.222;2023-04-25T04:58:50;22.20;69.50
2995;DHT22;35277;49.890;8.222;2023-04-25T05:01:32;22.20;69.50
2995;DHT22;35277;49.890;8.222;2023-04-25T05:04:20;22.20;69.50
2995;DHT22;35277;49.890;8.222;2023-04-25T05:07:08;22.20;69.50
2995;DHT22;35277;49.890;8.222;2023-04-25T05:09:56;22.20;69.70
2995;DHT22;35277;49.890;8.222;2023-04-25T05:12:58;22.30;70.30
2995;DHT22;35277;49.890;8.222;2023-04-25T05:15:45;22.30;70.50
2995;DHT22;35277;49.890;8.222;2023-04-25T05:18:22;22.30;70.70
2995;DHT22;35277;49.890;8.222;2023-04-25T05:21:04;22.30;70.70
2995;DHT22;35277;49.890;8.222;2023-04-25T05:23:39;22.30;70.60
2995;DHT22;35277;49.890;8.222;2023-04-25T05:26:34;22.30;70.50
2995;DHT22;35277;49.890;8.222;2023-04-25T05:29:34;22.30;70.40
2995;DHT22;35277;49.890;8.222;2023-04-25T05:32:15;22.30;70.20
2995;DHT22;35277;49.890;8.222;2023-04-25T05:34:45;22.30;70.00
2995;DHT22;35277;49.890;8.222;2023-04-25T05:37:22;22.30;70.00
2995;DHT22;35277;49.890;8.222;2023-04-25T05:39:59;22.30;69.90
2995;DHT22;35277;49.890;8.222;2023-04-25T05:42:43;22.30;69.90
2995;DHT22;35277;49.890;8.222;2023-04-25T05:45:40;22.30;69.70
2995;DHT22;35277;49.890;8.222;2023-04-25T05:48:28;22.30;69.60
2995;DHT22;35277;49.890;8.222;2023-04-25T05:51:06;22.30;69.50
2995;DHT22;35277;49.890;8.222;2023-04-25T05:53:42;22.30;69.40
2995;DHT22;35277;49.890;8.222;2023-04-25T05:56:12;22.30;69.40
2995;DHT22;35277;49.890;8.222;2023-04-25T05:58:41;22.30;69.30
2995;DHT22;35277;49.890;8.222;2023-04-25T06:01:12;22.30;69.20
2995;DHT22;35277;49.890;8.222;2023-04-25T06:03:40;22.30;69.10
2995;DHT22;35277;49.890;8.222;2023-04-25T06:06:10;22.30;69.10
2995;DHT22;35277;49.890;8.222;2023-04-25T06:08:38;22.30;69.00
2995;DHT22;35277;49.890;8.222;2023-04-25T06:11:06;22.30;68.90
2995;DHT22;35277;49.890;8.222;2023-04-25T06:13:34;22.30;68.90
2995;DHT22;35277;49.890;8.222;2023-04-25T06:16:03;22.30;68.80
2995;DHT22;35277;49.890;8.222;2023-04-25T06:18:31;22.30;68.70
2995;DHT22;35277;49.890;8.222;2023-04-25T06:20:59;22.30;68.70
2995;DHT22;35277;49.890;8.222;2023-04-25T06:23:27;22.30;68.60
2995;DHT22;35277;49.890;8.222;2023-04-25T06:26:02;22.30;68.60
2995;DHT22;35277;49.890;8.222;2023-04-25T06:28:32;22.30;68.60
2995;DHT22;35277;49.890;8.222;2023-04-25T06:31:00;22.30;68.60
2995;DHT22;35277;49.890;8.222;2023-04-25T06:33:29;22.30;68.50
2995;DHT22;35277;49.890;8.222;2023-04-25T06:35:57;22.30;68.50
2995;DHT22;35277;49.890;8.222;2023-04-25T06:38:27;22.30;68.50
2995;DHT22;35277;49.890;8.222;2023-04-25T06:40:56;22.30;68.40
2995;DHT22;35277;49.890;8.222;2023-04-25T06:43:27;22.30;68.40
2995;DHT22;35277;49.890;8.222;2023-04-25T06:46:04;22.30;68.30
2995;DHT22;35277;49.890;8.222;2023-04-25T06:48:39;22.30;68.30
2995;DHT22;35277;49.890;8.222;2023-04-25T06:51:06;22.30;68.30
2995;DHT22;35277;49.890;8.222;2023-04-25T06:53:36;22.30;68.30
2995;DHT22;35277;49.890;8.222;2023-04-25T06:56:06;22.30;68.20
2995;DHT22;35277;49.890;8.222;2023-04-25T06:58:51;22.30;68.20
2995;DHT22;35277;49.890;8.222;2023-04-25T07:01:34;22.30;68.20
2995;DHT22;35277;49.890;8.222;2023-04-25T07:04:07;22.30;68.20
2995;DHT22;35277;49.890;8.222;2023-04-25T07:06:39;22.30;68.20
2995;DHT22;35277;49.890;8.222;2023-04-25T07:09:10;22.30;68.20
2995;DHT22;35277;49.890;8.222;2023-04-25T07:11:38;22.30;68.10
2995;DHT22;35277;49.890;8.222;2023-04-25T07:14:06;22.30;68.10
2995;DHT22;35277;49.890;8.222;2023-04-25T07:16:34;22.30;68.10
2995;DHT22;35277;49.890;8.222;2023-04-25T07:19:02;22.30;68.10
2995;DHT22;35277;49.890;8.222;2023-04-25T07:21:31;22.30;68.10
2995;DHT22;35277;49.890;8.222;2023-04-25T07:24:02;22.30;68.00
2995;DHT22;35277;49.890;8.222;2023-04-25T07:26:33;22.30;68.10
2995;DHT22;35277;49.890;8.222;2023-04-25T07:29:21;22.30;68.00
2995;DHT22;35277;49.890;8.222;2023-04-25T07:31:49;22.30;68.00
2995;DHT22;35277;49.890;8.222;2023-04-25T07:34:19;22.30;68.10
2995;DHT22;35277;49.890;8.222;2023-04-25T07:36:50;22.30;68.00
2995;DHT22;35277;49.890;8.222;2023-04-25T07:39:18;22.40;68.10
2995;DHT22;35277;49.890;8.222;2023-04-25T07:41:45;22.30;67.90
2995;DHT22;35277;49.890;8.222;2023-04-25T07:44:19;22.40;68.00
2995;DHT22;35277;49.890;8.222;2023-04-25T07:46:47;22.40;68.00
2995;DHT22;35277;49.890;8.222;2023-04-25T07:49:15;22.40;68.00
2995;DHT22;35277;49.890;8.222;2023-04-25T07:51:44;22.40;68.00
2995;DHT22;35277;49.890;8.222;2023-04-25T07:54:17;22.40;68.00
2995;DHT22;35277;49.890;8.222;2023-04-25T07:56:50;22.40;68.00
2995;DHT22;35277;49.890;8.222;2023-04-25T07:59:23;22.40;68.00
2995;DHT22;35277;49.890;8.222;2023-04-25T08:01:52;22.40;68.00
2995;DHT22;35277;49.890;8.222;2023-04-25T08:04:22;22.40;68.00
2995;DHT22;35277;49.890;8.222;2023-04-25T08:06:58;22.40;67.90
2995;DHT22;35277;49.890;8.222;2023-04-25T08:09:30;22.40;68.00
2995;DHT22;35277;49.890;8.222;2023-04-25T08:12:03;22.40;68.00
2995;DHT22;35277;49.890;8.222;2023-04-25T08:14:32;22.40;68.00
2995;DHT22;35277;49.890;8.222;2023-04-25T08:17:04;22.40;68.00
2995;DHT22;35277;49.890;8.222;2023-04-25T08:19:38;22.40;67.90
2995;DHT22;35277;49.890;8.222;2023-04-25T08:22:08;22.40;68.00
2995;DHT22;35277;49.890;8.222;2023-04-25T08:24:47;22.40;68.00
2995;DHT22;35277;49.890;8.222;2023-04-25T08:27:18;22.40;68.00
2995;DHT22;35277;49.890;8.222;2023-04-25T08:29:47;22.40;68.00
2995;DHT22;35277;49.890;8.222;2023-04-25T08:32:15;22.40;68.00
2995;DHT22;35277;49.890;8.222;2023-04-25T08:34:57;22.40;68.00
2995;DHT22;35277;49.890;8.222;2023-04-25T08:37:25;22.50;68.10
2995;DHT22;35277;49.890;8.222;2023-04-25T08:39:59;22.50;68.00
2995;DHT22;35277;49.890;8.222;2023-04-25T08:42:43;22.50;68.00
2995;DHT22;35277;49.890;8.222;2023-04-25T08:45:13;22.50;68.00
2995;DHT22;35277;49.890;8.222;2023-04-25T08:47:43;22.50;68.00
2995;DHT22;35277;49.890;8.222;2023-04-25T08:50:13;22.50;67.90
2995;DHT22;35277;49.890;8.222;2023-04-25T08:52:44;22.40;67.80
2995;DHT22;35277;49.890;8.222;2023-04-25T08:55:14;22.50;68.00
2995;DHT22;35277;49.890;8.222;2023-04-25T08:57:43;22.50;68.10
2995;DHT22;35277;49.890;8.222;2023-04-25T09:00:13;22.50;68.00
2995;DHT22;35277;49.890;8.222;2023-04-25T09:02:43;22.50;68.10
2995;DHT22;35277;49.890;8.222;2023-04-25T09:05:13;22.50;68.10
2995;DHT22;35277;49.890;8.222;2023-04-25T09:07:43;22.50;68.10
2995;DHT22;35277;49.890;8.222;2023-04-25T09:10:11;22.50;68.10
2995;DHT22;35277;49.890;8.222;2023-04-25T09:12:40;22.50;68.10
2995;DHT22;35277;49.890;8.222;2023-04-25T09:15:11;22.50;68.10
2995;DHT22;35277;49.890;8.222;2023-04-25T09:17:55;22.50;68.00
2995;DHT22;35277;49.890;8.222;2023-04-25T09:20:26;22.60;68.20
2995;DHT22;35277;49.890;8.222;2023-04-25T09:23:04;22.60;68.20
2995;DHT22;35277;49.890;8.222;2023-04-25T09:25:37;22.50;68.10
2995;DHT22;35277;49.890;8.222;2023-04-25T09:28:09;22.50;68.10
2995;DHT22;35277;49.890;8.222;2023-04-25T09:30:37;22.60;68.20
2995;DHT22;35277;49.890;8.222;2023-04-25T09:33:28;22.60;68.10
2995;DHT22;35277;49.890;8.222;2023-04-25T09:36:02;22.60;68.20
2995;DHT22;35277;49.890;8.222;2023-04-25T09:38:59;22.60;68.10
2995;DHT22;35277;49.890;8.222;2023-04-25T09:41:29;22.60;68.10
2995;DHT22;35277;49.890;8.222;2023-04-25T09:44:01;22.60;68.20
2995;DHT22;35277;49.890;8.222;2023-04-25T09:46:34;22.60;68.20
2995;DHT22;35277;49.890;8.222;2023-04-25T09:49:07;22.60;68.20
2995;DHT22;35277;49.890;8.222;2023-04-25T09:51:56;22.60;68.20
2995;DHT22;35277;49.890;8.222;2023-04-25T09:54:29;22.60;68.20
2995;DHT22;35277;49.890;8.222;2023-04-25T09:57:11;22.60;68.20
2995;DHT22;35277;49.890;8.222;2023-04-25T09:59:43;22.60;68.10
2995;DHT22;35277;49.890;8.222;2023-04-25T10:02:12;22.60;68.10
2995;DHT22;35277;49.890;8.222;2023-04-25T10:04:41;22.60;68.20
2995;DHT22;35277;49.890;8.222;2023-04-25T10:07:18;22.60;68.50
2995;DHT22;35277;49.890;8.222;2023-04-25T10:09:48;22.60;68.90
2995;DHT22;35277;49.890;8.222;2023-04-25T10:12:17;22.60;69.90
2995;DHT22;35277;49.890;8.222;2023-04-25T10:14:47;22.70;69.30
2995;DHT22;35277;49.890;8.222;2023-04-25T10:17:15;22.70;70.10
2995;DHT22;35277;49.890;8.222;2023-04-25T10:19:43;22.70;69.30
2995;DHT22;35277;49.890;8.222;2023-04-25T10:22:14;22.70;69.20
2995;DHT22;35277;49.890;8.222;2023-04-25T10:24:44;22.70;69.30
2995;DHT22;35277;49.890;8.222;2023-04-25T10:27:13;22.80;69.40
2995;DHT22;35277;49.890;8.222;2023-04-25T10:29:41;22.70;69.30
2995;DHT22;35277;49.890;8.222;2023-04-25T10:32:11;22.70;69.20
2995;DHT22;35277;49.890;8.222;2023-04-25T10:34:41;22.80;69.30
2995;DHT22;35277;49.890;8.222;2023-04-25T10:37:09;22.80;69.30
2995;DHT22;35277;49.890;8.222;2023-04-25T10:39:39;22.70;69.50
2995;DHT22;35277;49.890;8.222;2023-04-25T10:42:08;22.70;69.80
2995;DHT22;35277;49.890;8.222;2023-04-25T10:44:37;22.80;70.00
2995;DHT22;35277;49.890;8.222;2023-04-25T10:47:07;22.80;70.00
2995;DHT22;35277;49.890;8.222;2023-04-25T10:49:40;22.80;69.90
2995;DHT22;35277;49.890;8.222;2023-04-25T10:52:17;22.80;70.60
2995;DHT22;35277;49.890;8.222;2023-04-25T10:54:48;22.80;69.80
2995;DHT22;35277;49.890;8.222;2023-04-25T10:57:41;22.80;69.70
2995;DHT22;35277;49.890;8.222;2023-04-25T11:00:12;22.70;69.70
2995;DHT22;35277;49.890;8.222;2023-04-25T11:02:43;22.80;69.60
2995;DHT22;35277;49.890;8.222;2023-04-25T11:05:20;22.70;69.50
2995;DHT22;35277;49.890;8.222;2023-04-25T11:07:51;22.70;69.50
2995;DHT22;35277;49.890;8.222;2023-04-25T11:10:33;22.70;70.20
2995;DHT22;35277;49.890;8.222;2023-04-25T11:13:03;22.70;69.40
2995;DHT22;35277;49.890;8.222;2023-04-25T11:15:31;22.70;69.40
2995;DHT22;35277;49.890;8.222;2023-04-25T11:17:59;22.70;69.30
2995;DHT22;35277;49.890;8.222;2023-04-25T11:20:29;22.70;69.30
2995;DHT22;35277;49.890;8.222;2023-04-25T11:22:58;22.70;69.20
2995;DHT22;35277;49.890;8.222;2023-04-25T11:25:26;22.70;69.20
2995;DHT22;35277;49.890;8.222;2023-04-25T11:27:55;22.70;69.20
2995;DHT22;35277;49.890;8.222;2023-04-25T11:30:25;22.70;69.10
2995;DHT22;35277;49.890;8.222;2023-04-25T11:32:53;22.70;69.10
2995;DHT22;35277;49.890;8.222;2023-04-25T11:35:21;22.70;69.10
2995;DHT22;35277;49.890;8.222;2023-04-25T11:37:53;22.70;69.10
2995;DHT22;35277;49.890;8.222;2023-04-25T11:40:20;22.70;69.10
2995;DHT22;35277;49.890;8.222;2023-04-25T11:42:48;22.70;69.00
2995;DHT22;35277;49.890;8.222;2023-04-25T11:45:17;22.70;69.00
2995;DHT22;35277;49.890;8.222;2023-04-25T11:47:45;22.70;69.00
2995;DHT22;35277;49.890;8.222;2023-04-25T11:50:13;22.70;69.00
2995;DHT22;35277;49.890;8.222;2023-04-25T11:52:43;22.70;68.90
2995;DHT22;35277;49.890;8.222;2023-04-25T11:55:15;22.60;68.80
2995;DHT22;35277;49.890;8.222;2023-04-25T11:57:44;22.70;68.80
2995;DHT22;35277;49.890;8.222;2023-04-25T12:00:14;22.70;68.80
2995;DHT22;35277;49.890;8.222;2023-04-25T12:02:47;22.60;69.50
2995;DHT22;35277;49.890;8.222;2023-04-25T12:05:15;22.60;68.70
2995;DHT22;35277;49.890;8.222;2023-04-25T12:07:46;22.60;68.70
2995;DHT22;35277;49.890;8.222;2023-04-25T12:10:17;22.60;68.60
2995;DHT22;35277;49.890;8.222;2023-04-25T12:12:46;22.60;68.60
2995;DHT22;35277;49.890;8.222;2023-04-25T12:15:15;22.60;68.50
2995;DHT22;35277;49.890;8.222;2023-04-25T12:17:46;22.70;68.60
2995;DHT22;35277;49.890;8.222;2023-04-25T12:20:16;22.70;68.60
2995;DHT22;35277;49.890;8.222;2023-04-25T12:22:45;22.60;68.40
2995;DHT22;35277;49.890;8.222;2023-04-25T12:25:35;22.70;68.50
2995;DHT22;35277;49.890;8.222;2023-04-25T12:28:13;22.70;68.40
2995;DHT22;35277;49.890;8.222;2023-04-25T12:30:54;22.70;68.30
2995;DHT22;35277;49.890;8.222;2023-04-25T12:33:22;22.70;68.20
2995;DHT22;35277;49.890;8.222;2023-04-25T12:35:50;22.70;68.20
2995;DHT22;35277;49.890;8.222;2023-04-25T12:38:25;22.60;68.00
2995;DHT22;35277;49.890;8.222;2023-04-25T12:40:54;22.60;67.90
2995;DHT22;35277;49.890;8.222;2023-04-25T12:43:22;22.70;68.00
2995;DHT22;35277;49.890;8.222;2023-04-25T12:45:51;22.70;68.00
2995;DHT22;35277;49.890;8.222;2023-04-25T12:48:20;22.60;67.90
2995;DHT22;35277;49.890;8.222;2023-04-25T12:50:49;22.60;68.10
2995;DHT22;35277;49.890;8.222;2023-04-25T12:53:17;22.60;68.30
2995;DHT22;35277;49.890;8.222;2023-04-25T12:55:45;22.70;68.50
2995;DHT22;35277;49.890;8.222;2023-04-25T12:58:15;22.70;68.60
2995;DHT22;35277;49.890;8.222;2023-04-25T13:00:43;22.70;68.50
2995;DHT22;35277;49.890;8.222;2023-04-25T13:03:11;22.70;68.60
2995;DHT22;35277;49.890;8.222;2023-04-25T13:05:40;22.70;68.40
2995;DHT22;35277;49.890;8.222;2023-04-25T13:08:07;22.70;68.40
2995;DHT22;35277;49.890;8.222;2023-04-25T13:10:35;22.70;68.40
2995;DHT22;35277;49.890;8.222;2023-04-25T13:13:04;22.70;68.30
2995;DHT22;35277;49.890;8.222;2023-04-25T13:15:33;22.70;68.30
2995;DHT22;35277;49.890;8.222;2023-04-25T13:18:02;22.70;68.30
2995;DHT22;35277;49.890;8.222;2023-04-25T13:20:30;22.70;68.30
2995;DHT22;35277;49.890;8.222;2023-04-25T13:22:58;22.70;68.20
2995;DHT22;35277;49.890;8.222;2023-04-25T13:25:28;22.70;68.10
2995;DHT22;35277;49.890;8.222;2023-04-25T13:27:56;22.70;68.10
2995;DHT22;35277;49.890;8.222;2023-04-25T13:30:23;22.70;68.10
2995;DHT22;35277;49.890;8.222;2023-04-25T13:32:53;22.70;68.10
2995;DHT22;35277;49.890;8.222;2023-04-25T13:35:23;22.70;68.10
2995;DHT22;35277;49.890;8.222;2023-04-25T13:37:51;22.70;68.00
2995;DHT22;35277;49.890;8.222;2023-04-25T13:40:18;22.70;68.00
2995;DHT22;35277;49.890;8.222;2023-04-25T13:42:48;22.70;68.00
2995;DHT22;35277;49.890;8.222;2023-04-25T13:45:17;22.70;68.10
2995;DHT22;35277;49.890;8.222;2023-04-25T13:47:45;22.70;68.00
2995;DHT22;35277;49.890;8.222;2023-04-25T13:50:14;22.70;68.00
2995;DHT22;35277;49.890;8.222;2023-04-25T13:52:42;22.70;68.00
2995;DHT22;35277;49.890;8.222;2023-04-25T13:55:11;22.70;67.90
2995;DHT22;35277;49.890;8.222;2023-04-25T13:57:39;22.70;68.00
2995;DHT22;35277;49.890;8.222;2023-04-25T14:00:08;22.70;67.90
2995;DHT22;35277;49.890;8.222;2023-04-25T14:02:36;22.70;67.90
2995;DHT22;35277;49.890;8.222;2023-04-25T14:05:05;22.70;67.90
2995;DHT22;35277;49.890;8.222;2023-04-25T14:07:35;22.70;68.00
2995;DHT22;35277;49.890;8.222;2023-04-25T14:10:03;22.70;67.90
2995;DHT22;35277;49.890;8.222;2023-04-25T14:12:32;22.70;67.90
2995;DHT22;35277;49.890;8.222;2023-04-25T14:14:59;22.70;67.80
2995;DHT22;35277;49.890;8.222;2023-04-25T14:17:27;22.70;67.80
2995;DHT22;35277;49.890;8.222;2023-04-25T14:19:55;22.70;67.80
2995;DHT22;35277;49.890;8.222;2023-04-25T14:22:23;22.70;68.60
2995;DHT22;35277;49.890;8.222;2023-04-25T14:24:52;22.70;67.70
2995;DHT22;35277;49.890;8.222;2023-04-25T14:27:20;22.70;67.70
2995;DHT22;35277;49.890;8.222;2023-04-25T14:29:47;22.70;67.60
2995;DHT22;35277;49.890;8.222;2023-04-25T14:32:15;22.60;67.50
2995;DHT22;35277;49.890;8.222;2023-04-25T14:34:43;22.60;67.40
2995;DHT22;35277;49.890;8.222;2023-04-25T14:37:11;22.60;67.40
2995;DHT22;35277;49.890;8.222;2023-04-25T14:39:39;22.60;67.40
2995;DHT22;35277;49.890;8.222;2023-04-25T14:42:08;22.60;67.30
2995;DHT22;35277;49.890;8.222;2023-04-25T14:44:38;22.70;67.40
2995;DHT22;35277;49.890;8.222;2023-04-25T14:47:06;22.70;67.40
2995;DHT22;35277;49.890;8.222;2023-04-25T14:49:34;22.70;67.40
2995;DHT22;35277;49.890;8.222;2023-04-25T14:52:02;22.60;67.20
2995;DHT22;35277;49.890;8.222;2023-04-25T14:54:30;22.70;67.30
2995;DHT22;35277;49.890;8.222;2023-04-25T14:56:57;22.70;67.30
2995;DHT22;35277;49.890;8.222;2023-04-25T14:59:26;22.70;67.30
2995;DHT22;35277;49.890;8.222;2023-04-25T15:01:54;22.70;67.30
2995;DHT22;35277;49.890;8.222;2023-04-25T15:04:25;22.70;67.40
2995;DHT22;35277;49.890;8.222;2023-04-25T15:06:53;22.70;67.40
2995;DHT22;35277;49.890;8.222;2023-04-25T15:09:21;22.70;67.40
2995;DHT22;35277;49.890;8.222;2023-04-25T15:11:50;22.70;67.40
2995;DHT22;35277;49.890;8.222;2023-04-25T15:14:18;22.70;67.50
2995;DHT22;35277;49.890;8.222;2023-04-25T15:16:47;22.70;68.30
2995;DHT22;35277;49.890;8.222;2023-04-25T15:19:15;22.70;67.50
2995;DHT22;35277;49.890;8.222;2023-04-25T15:21:42;22.70;67.50
2995;DHT22;35277;49.890;8.222;2023-04-25T15:24:10;22.70;67.60
2995;DHT22;35277;49.890;8.222;2023-04-25T15:26:38;22.70;67.70
2995;DHT22;35277;49.890;8.222;2023-04-25T15:29:06;22.70;67.80
2995;DHT22;35277;49.890;8.222;2023-04-25T15:31:34;22.70;67.90
2995;DHT22;35277;49.890;8.222;2023-04-25T15:34:03;22.70;67.90
2995;DHT22;35277;49.890;8.222;2023-04-25T15:36:31;22.70;68.00
2995;DHT22;35277;49.890;8.222;2023-04-25T15:38:59;22.70;68.10
2995;DHT22;35277;49.890;8.222;2023-04-25T15:41:27;22.70;68.10
2995;DHT22;35277;49.890;8.222;2023-04-25T15:43:55;22.70;68.00
2995;DHT22;35277;49.890;8.222;2023-04-25T15:46:23;22.70;68.00
2995;DHT22;35277;49.890;8.222;2023-04-25T15:48:51;22.70;67.90
2995;DHT22;35277;49.890;8.222;2023-04-25T15:51:20;22.80;68.00
2995;DHT22;35277;49.890;8.222;2023-04-25T15:53:48;22.70;67.80
2995;DHT22;35277;49.890;8.222;2023-04-25T15:56:16;22.80;67.90
2995;DHT22;35277;49.890;8.222;2023-04-25T15:58:44;22.80;67.90
2995;DHT22;35277;49.890;8.222;2023-04-25T16:01:12;22.80;67.80
2995;DHT22;35277;49.890;8.222;2023-04-25T16:03:40;22.80;67.90
2995;DHT22;35277;49.890;8.222;2023-04-25T16:06:08;22.80;68.70
2995;DHT22;35277;49.890;8.222;2023-04-25T16:08:37;22.80;67.90